Decoded Metar for LFBP (PAU in FRANCE) (IATA:PUF) | Meteo·Mobile Aviation Weather
aviador You're here:

LFBP Decoded Metar

PAU in FRANCE
Report Time2019-03-20 15:30:00
UTC Time2019-03-20 15:50:21
Flight Rules vfr VFR
Wind360° at 07 kt
W.Decomp.*RWY 31: 4.4 kt HW 5.4 kt RCW
Visibility9999 m
Phenomena:N/A
Clouds:N/A
Expected CloudBase > 5,600 ft AGL from Temp-Dew spread
CeilingNone
Temp14°C (ISA 0)
Dew Point00°C (39% RH)
AAT9.5°C
QNH1030 hPa
Density Alt148 ft
Elevation607 ft
Report Wrong Elevation
Raw Report
LFBP 201530Z AUTO 36007KT 320V040 CAVOK 14/M00 Q1030 NOSIG=

Extra information for LFBP:More info

Metar Taf Metar & Taf Last 4 Metars F.Rules Stats Wind Profile Meteogram Temp Stats Airport Information Weather charts Add Link Nearby VenuesMetar ALERT Operation Metar Decoded Social comments